Gulkana Airport Gulkana US
ICAO: PAGK
IATA:
Category: Medium
Scheduled Services:

Elevation: 1586 ft
TransAlt. 18000 ft.

Airport Communications:
ASOS:134.85
ANCHORAGE CNTR:119.5
CTAF:122.9
KENAI RDO:122.2
TWEB:115.6

PAGK Zoom In..

If you have problems with the map follow the link
https://www.worldairports.se/pages/airport.php?
ICAO=PAGK

Runways:

(A) RW 15 length 5001 ft width 100 ft
---- / hdg 148

(B) RW 33 length 5001 ft width 100 ft
---- / hdg 328

Location; PAGK
Day. 08 / Time. 12.53 Zulu
* Altimeter: 29.52
* Temperature: 01° c. 33.8°f.
* Wind from: 150° Speed 11 kn.
Dewpoint: -01° c.
Visibility: 10 Statute Miles.
Clouds: Clear (automated report).

PAGK 081253Z AUTO 15011KT 10SM CLR 01/M01 A2952 RMK AO2 SLP032 T00111006 TSNO


Wind From 150°
Speed 11 kn.

 
 
jpsmedia worldairports.se 2019   terms of use